ADDS METAR Data INFO
IDs: Format: Raw Decoded Include TAF

Data at: 0808 UTC 23 Jul 2018

KOKZ 230755Z AUTO 00000KT 7SM SCT004 BKN090 19/19 A2976 RMK AO2 LTG DSNT NE T01850185
KOKZ 230735Z AUTO 00000KT 10SM BKN004 19/19 A2977 RMK AO2 T01860186
KOKZ 230715Z AUTO 00000KT 10SM BKN002 19/19 A2978 RMK AO2 T01880188
KOKZ 230655Z AUTO 00000KT 10SM CLR 19/19 A2977 RMK AO2 T01900190
KOKZ 230635Z AUTO 00000KT 10SM -DZ CLR 19/19 A2978 RMK AO2 LTG DSNT S T01900190
KOKZ 230615Z AUTO 35003KT 10SM -RA SCT048 SCT070 SCT085 19/19 A2978 RMK AO2 LTG DSNT S AND SW T01900190
KOKZ 230555Z AUTO 00000KT 7SM -RA SCT032 BKN049 OVC080 20/20 A2977 RMK AO2 LTG DSNT SW T01970197 10262 20197 403250178
KOKZ 230535Z AUTO 00000KT 3SM RA SCT032 BKN044 OVC060 20/20 A2978 RMK AO2 LTG DSNT N S AND SW T01990199
KOKZ 230515Z AUTO 00000KT 7SM TSRA SCT011 BKN060 OVC075 21/21 A2979 RMK AO2 LTG DSNT ALQS T02070207
KOKZ 230455Z AUTO 00000KT 4SM -TSRA SCT015 BKN036 OVC075 21/21 A2981 RMK AO2 LTG DSNT ALQS T02100210
KOKZ 230435Z AUTO 23004KT 10SM TSRA BKN050 BKN060 OVC090 22/21 A2981 RMK AO2 LTG DSNT ALQS T02180208
KOKZ 230415Z AUTO 24003KT 10SM VCTS BKN060 BKN070 OVC080 22/22 A2981 RMK AO2 LTG DSNT SW THRU N T02150215
KOKZ 230355Z AUTO 33004KT 10SM SCT070 SCT080 21/21 A2980 RMK AO2 LTG DSNT W AND NW T02110211
KOKZ 230335Z AUTO 00000KT 10SM CLR 21/21 A2979 RMK AO2 LTG DSNT W THRU N T02120212
KOKZ 230315Z AUTO 00000KT 10SM CLR 22/21 A2979 RMK AO2 LTG DSNT NW T02230205
KOKZ 230255Z AUTO 00000KT 10SM CLR 23/20 A2979 RMK AO2 LTG DSNT NW T02250202
KOKZ 230235Z AUTO 18004KT 10SM CLR 22/20 A2979 RMK AO2 T02220204
KOKZ 230215Z AUTO 00000KT 10SM CLR 22/22 A2978 RMK AO2 LTG DSNT NW T02170217
KOKZ 230155Z AUTO 00000KT 10SM CLR 22/22 A2977 RMK AO2 LTG DSNT N T02220222
KOKZ 230135Z AUTO 00000KT 10SM CLR 23/23 A2976 RMK AO2 LTG DSNT SE AND NW T02260226
KOKZ 230115Z AUTO 00000KT 10SM CLR 23/21 A2976 RMK AO2 LTG DSNT N AND NW T02320211
KOKZ 230055Z AUTO 00000KT 10SM CLR 24/21 A2975 RMK AO2 T02400206
KOKZ 230035Z AUTO 00000KT 10SM CLR 25/20 A2976 RMK AO2 LTG DSNT N T02490204
KOKZ 230015Z AUTO 12004KT 10SM SCT080 SCT100 26/20 A2976 RMK AO2 LTG DSNT E AND NW T02560199
KOKZ 222355Z AUTO 08005KT 10SM -VCTSRA SCT060 SCT080 SCT095 26/22 A2975 RMK AO2 LTG DSNT ALQS T02640216 10325 20251
KOKZ 222335Z AUTO 11007KT 10SM TS SCT050 SCT060 SCT110 27/21 A2976 RMK AO2 LTG DSNT N THRU SE T02650211
KOKZ 222315Z AUTO 21003KT 10SM VCTS SCT060 SCT070 BKN120 26/21 A2976 RMK AO2 LTG DSNT NE THRU SW T02560209
KOKZ 222255Z AUTO 15009G16KT 10SM VCTS BKN060 BKN070 BKN090 26/21 A2975 RMK AO2 LTG DSNT ALQS T02620208
KOKZ 222235Z AUTO 18006KT 10SM TS BKN060 BKN070 OVC100 30/23 A2975 RMK AO2 LTG DSNT ALQS T02960228
KOKZ 222215Z AUTO 00000KT 10SM SCT050 BKN070 BKN080 31/21 A2974 RMK AO2 LTG DSNT SE AND SW T03060206
KOKZ 222155Z AUTO 00000KT 10SM SCT050 SCT060 32/19 A2974 RMK AO2 LTG DSNT SE THRU SW T03170186
KOKZ 222135Z AUTO 00000KT 10SM SCT060 32/20 A2974 RMK AO2 LTG DSNT S T03190197
KOKZ 222115Z AUTO 00000KT 10SM CLR 32/19 A2974 RMK AO2 LTG DSNT S AND SW T03170191
KOKZ 222055Z AUTO 31003KT 10SM CLR 32/20 A2973 RMK AO2 LTG DSNT N AND S T03190199
KOKZ 222035Z AUTO 36003KT 10SM CLR 32/19 A2973 RMK AO2 LTG DSNT S T03160193
KOKZ 222015Z AUTO 31004KT 10SM SCT048 SCT050 SCT065 32/20 A2974 RMK AO2 T03150195
KOKZ 221955Z AUTO 00000KT 10SM SCT048 SCT050 SCT065 31/20 A2975 RMK AO2 T03120197
KOKZ 221935Z AUTO 28005KT 10SM SCT045 32/20 A2975 RMK AO2 T03150198
KOKZ 221915Z AUTO 27005KT 10SM CLR 31/20 A2975 RMK AO2 LTG DSNT S T03110199
KOKZ 221855Z AUTO 30005KT 10SM SCT050 SCT065 SCT080 30/21 A2976 RMK AO2 T03020205
KOKZ 221835Z AUTO 00000KT 10SM SCT042 SCT050 SCT060 30/20 A2976 RMK AO2 T03010203
KOKZ 221815Z AUTO 28005KT 10SM SCT044 SCT060 BKN090 29/20 A2977 RMK AO2 T02940201
KOKZ 221755Z AUTO 29006G17KT 270V330 10SM SCT045 31/20 A2978 RMK AO2 LTG DSNT N T03050195 10305 20193
KOKZ 221735Z AUTO 30006KT 10SM SCT044 SCT050 SCT065 30/20 A2979 RMK AO2 T03010197
KOKZ 221715Z AUTO 29003KT 10SM SCT044 SCT055 SCT070 30/19 A2980 RMK AO2 T02980192
KOKZ 221655Z AUTO 26006KT 10SM SCT049 SCT055 30/19 A2981 RMK AO2 T02980192
KOKZ 221635Z AUTO 30004KT 10SM CLR 29/19 A2981 RMK AO2 T02900191
KOKZ 221615Z AUTO 28006KT 10SM CLR 29/20 A2982 RMK AO2 T02900197
KOKZ 221555Z AUTO 25007KT 10SM CLR 29/20 A2982 RMK AO2 T02860196
KOKZ 221535Z AUTO 26006KT 10SM CLR 28/20 A2982 RMK AO2 T02820198
KOKZ 221515Z AUTO 30005KT 10SM CLR 28/19 A2982 RMK AO2 T02770193
KOKZ 221455Z AUTO 30006KT 10SM CLR 27/19 A2982 RMK AO2 T02710194
KOKZ 221435Z AUTO 28005KT 10SM CLR 27/20 A2982 RMK AO2 T02650197
KOKZ 221415Z AUTO 31006KT 10SM CLR 26/19 A2982 RMK AO2 T02550194
KOKZ 221355Z AUTO 29004KT 10SM CLR 25/20 A2982 RMK AO2 T02480196
KOKZ 221335Z AUTO 30005KT 10SM CLR 24/20 A2981 RMK AO2 T02350196
KOKZ 221315Z AUTO 30006KT 10SM CLR 23/20 A2981 RMK AO2 T02270195
KOKZ 221255Z AUTO 31005KT 10SM CLR 22/20 A2981 RMK AO2 T02190195
KOKZ 221235Z AUTO 30004KT 10SM CLR 21/20 A2981 RMK AO2 T02100198
KOKZ 221215Z AUTO 29003KT 10SM CLR 20/20 A2980 RMK AO2 T01980198
KOKZ 221155Z AUTO 00000KT 10SM CLR 19/19 A2980 RMK AO2 T01920192 10212 20178
KOKZ 221135Z AUTO 00000KT 10SM CLR 19/19 A2980 RMK AO2 T01850185
KOKZ 221115Z AUTO 00000KT 7SM CLR 18/18 A2980 RMK AO2 T01800180
KOKZ 221055Z AUTO 00000KT 10SM CLR 18/18 A2979 RMK AO2 T01800180
KOKZ 221035Z AUTO 00000KT 10SM CLR 18/18 A2979 RMK AO2 T01820182
KOKZ 221015Z AUTO 00000KT 10SM CLR 19/19 A2979 RMK AO2 T01850185
KOKZ 220955Z AUTO 00000KT 10SM CLR 19/19 A2979 RMK AO2 T01880188
KOKZ 220935Z AUTO 00000KT 10SM CLR 19/19 A2978 RMK AO2 T01900190
KOKZ 220915Z AUTO 00000KT 10SM CLR 20/20 A2978 RMK AO2 T01950195
KOKZ 220855Z AUTO 00000KT 7SM CLR 20/20 A2978 RMK AO2 T02010201
KOKZ 220835Z AUTO 00000KT 10SM CLR 20/20 A2978 RMK AO2 T02040204
KOKZ 220815Z AUTO 00000KT 10SM CLR 21/21 A2978 RMK AO2 T02070207
KOKZ 220755Z AUTO 00000KT 10SM CLR 21/21 A2977 RMK AO2 T02100210
KOKZ 220735Z AUTO 00000KT 10SM CLR 21/21 A2978 RMK AO2 LTG DSNT S T02100210
KOKZ 220715Z AUTO 00000KT 10SM SCT065 21/21 A2979 RMK AO2 T02100210
KOKZ 220655Z AUTO 25004KT 7SM SCT055 SCT065 21/21 A2980 RMK AO2 T02060206
KOKZ 220635Z AUTO 00000KT 7SM BKN060 BKN080 21/21 A2981 RMK AO2 T02100210
KOKZ 220615Z AUTO 00000KT 5SM BR SCT060 BKN080 BKN090 21/21 A2981 RMK AO2 T02100210
KOKZ 220555Z AUTO 00000KT 5SM BR SCT060 BKN090 21/21 A2982 RMK AO2 T02110211 10270 20211 402950183
KOKZ 220535Z AUTO 00000KT 7SM SCT090 22/22 A2981 RMK AO2 T02160216
KOKZ 220515Z AUTO 00000KT 7SM CLR 22/22 A2981 RMK AO2 LTG DSNT NE T02200220
KOKZ 220455Z AUTO 00000KT 10SM CLR 23/23 A2981 RMK AO2 LTG DSNT NE T02250225
KOKZ 220435Z AUTO 00000KT 10SM CLR 23/23 A2981 RMK AO2 LTG DSNT N AND NE T02280228
KOKZ 220415Z AUTO 23003KT 10SM CLR 23/23 A2981 RMK AO2 LTG DSNT N AND NE T02310231
KOKZ 220355Z AUTO 23004KT 10SM CLR 23/23 A2980 RMK AO2 T02340234
KOKZ 220335Z AUTO 22004KT 10SM CLR 24/24 A2979 RMK AO2 T02350235
KOKZ 220315Z AUTO 21004KT 10SM CLR 24/24 A2980 RMK AO2 T02380238
KOKZ 220255Z AUTO 23003KT 10SM CLR 24/24 A2980 RMK AO2 T02430243
KOKZ 220235Z AUTO 22004KT 10SM CLR 25/24 A2981 RMK AO2 T02470236
KOKZ 220215Z AUTO 23003KT 10SM CLR 25/24 A2980 RMK AO2 T02510235
KOKZ 220155Z AUTO 20004KT 10SM CLR 25/24 A2979 RMK AO2 T02530235
KOKZ 220135Z AUTO 22003KT 10SM CLR 26/24 A2980 RMK AO2 T02550238
KOKZ 220115Z AUTO 20003KT 10SM SCT027 BKN034 26/24 A2980 RMK AO2 T02580240
KOKZ 220055Z AUTO 00000KT 10SM BKN027 26/24 A2981 RMK AO2 T02600241
KOKZ 220035Z AUTO 00000KT 10SM CLR 26/24 A2981 RMK AO2 T02620241
KOKZ 220015Z AUTO 20003KT 10SM BKN025 BKN035 27/24 A2981 RMK AO2 T02650240
KOKZ 212355Z AUTO 00000KT 10SM SCT029 OVC033 27/24 A2981 RMK AO2 LTG DSNT W T02700238 10295 20234
KOKZ 212335Z AUTO 23003KT 10SM BKN031 28/24 A2980 RMK AO2 LTG DSNT W T02750235
KOKZ 212315Z AUTO 24004KT 10SM CLR 28/23 A2981 RMK AO2 T02840234
KOKZ 212255Z AUTO 22003KT 10SM CLR 29/23 A2979 RMK AO2 T02900232
KOKZ 212235Z AUTO 25004KT 10SM CLR 29/23 A2979 RMK AO2 T02900227
KOKZ 212215Z AUTO 25005KT 10SM CLR 29/23 A2980 RMK AO2 T02920227
KOKZ 212155Z AUTO 24006KT 10SM CLR 29/23 A2981 RMK AO2 T02940228
KOKZ 212135Z AUTO 21007KT 10SM CLR 29/22 A2981 RMK AO2 T02910222
KOKZ 212115Z AUTO 25005KT 10SM CLR 29/22 A2981 RMK AO2 T02900217
KOKZ 212055Z AUTO 26005KT 10SM CLR 29/21 A2982 RMK AO2 T02870213
KOKZ 212035Z AUTO 21005KT 10SM CLR 28/21 A2981 RMK AO2 T02840212
KOKZ 212015Z AUTO 22006KT 10SM CLR 28/21 A2981 RMK AO2 T02780213